KFZY

Details ICAO KFZY
Name OSWEGO CO
Region United States
Timezone America/New_York (UTC-4.0)
Plans Departing 5
Arriving 1
Stats Elevation 475 ft / 145 m (AMSL)
Location 43.350713° -76.388058°
Runways 2
Magnetic Variation 12.256° W
Sunrise 2018-05-23 09:35:20 UTC / 2018-05-23 05:35:20 Local
Sunset 2018-05-24 00:32:10 UTC / 2018-05-23 20:32:10 Local
Advertisement - Login to hide

Runways

ID Width Length Bearing (true) Bearing (mag) Surface Threshold Offset Overrun Length
06 100 ft / 30 m 3,992 ft / 1,217 m 46.81° 59.07° Asphalt 0 ft / 0 m 0 ft / 0 m
15 100 ft / 30 m 5,194 ft / 1,583 m 136.99° 149.25° Asphalt 0 ft / 0 m 0 ft / 0 m
24 100 ft / 30 m 3,992 ft / 1,217 m 226.82° 239.08° Asphalt 0 ft / 0 m 0 ft / 0 m
33 100 ft / 30 m 5,194 ft / 1,583 m 317.00° 329.26° Asphalt 0 ft / 0 m 0 ft / 0 m

Map

Weather


0- 5 10 15 20 25 30 35+ Temperature / ° C

Clouds and Precipitation
Forecast for 2018-05-23 18:00 UTC. Updated 3 hours ago

Ground ~20,000 ft ~40,000 ft Winds

METAR

KFZY 231954Z AUTO 30014G20KT 10SM CLR 22/11 A3002 RMK AO2 SLP164 T02220106

TAF

Not found

Frequencies

Recorded 119.27 MHz ASOS
Approach 134.27 MHz SYRACUSE APP/DEP
Unicom 123.00 MHz CTAF/UNICOM
Warning: Do not use this data for real-world aviation or navigation. No guarantee of current accuracy is given.